Main page
METAR-TAF:

METAR-TAF

Airports :

Castres–Mazamet Airport

Castres, France

latitude: 43-33-25N, longitude: 2-17-21E, elevation: 239 m

Current weather observation

The report was made 20 minutes ago, at 04:00 UTC
Wind 3 kt from variable directions
Temperature 12°C
Humidity 100%
Pressure 1019 hPa
Visibility: 7000 m

METAR: LFCK 170400Z AUTO VRB03KT 7000 NSC 12/12 Q1019

Time: 06:20 (04:20 UTC)

Forecast

The report was made 11 hours and 20 minutes ago, at 17:00 UTC
Forecast valid from 16 at 18 UTC to 17 at 03 UTC
Wind 6 kt from the East/Southeast
Visibility 10 km or more
Scattered clouds at a height of 3000 ft
Becoming
from 16 at 19 UTC to 16 at 22 UTC
Visibility: 4000 m
mist
Becoming
from 16 at 22 UTC to 17 at 01 UTC
Visibility: 0800 m
patches of fog
Probability 40%
from 17 at 00 UTC to 17 at 03 UTC
Visibility: 0400 m
fog

TAF: LFCK 161700Z 1618/1703 12006KT 9999 SCT030 BECMG 1619/1622 4000 BR BECMG 1622/1701 0800 BCFG PROB40 1700/1703 0400 FG VV///

Weather observations and forecasts of more than 4000 airports (METAR and TAF reports).

The available stations are represented by yellow and red dots on the map.

Hover mouse over dot to see the name of the station.

Then click to see weather observations and forecasts.

To change the map : click on the green buttons with a black cross to zoom in, on the green button with a dash to zoom out, or on the green arrows for adjacent maps.


METAR-TAF: